Time;durP1;ratioP1;P1;durP2;ratioP2;P2;SDS_P1;SDS_P2;PMS_P1;PMS_P2;Temp;Humidity;BMP_temperature;BMP_pressure;BME280_temperature;BME280_humidity;BME280_pressure;Samples;Min_cycle;Max_cycle;Signal;HPM_P1;HPM_P2
2022/06/23 00:00:23;;;;;;;5.18;2.13;;;;;;;;;;4974613;28;20457;-93
2022/06/23 00:02:48;;;;;;;6.40;2.17;;;;;;;;;;4975277;28;20015;-93
2022/06/23 00:05:18;;;;;;;12.55;3.42;;;;;;;;;;4975739;28;20077;-94
2022/06/23 00:07:46;;;;;;;6.03;2.22;;;;;;;;;;4977180;28;20515;-93
2022/06/23 00:10:16;;;;;;;5.97;2.28;;;;;;;;;;4975701;28;20031;-94
2022/06/23 00:12:43;;;;;;;4.40;2.15;;;;;;;;;;4957667;28;20078;-93
2022/06/23 00:15:17;;;;;;;2.80;2.10;;;;;;;;;;4956994;28;20081;-96
2022/06/23 00:17:47;;;;;;;3.67;1.90;;;;;;;;;;4955429;28;20023;-94
2022/06/23 00:20:14;;;;;;;7.22;2.35;;;;;;;;;;4956932;29;20090;-94
2022/06/23 00:22:41;;;;;;;9.27;2.63;;;;;;;;;;4955592;28;20018;-93
2022/06/23 00:25:07;;;;;;;4.45;2.33;;;;;;;;;;4957102;28;20026;-94
2022/06/23 00:27:35;;;;;;;6.25;2.40;;;;;;;;;;4970359;28;20015;-93
2022/06/23 00:30:01;;;;;;;6.95;2.42;;;;;;;;;;4975115;28;20039;-94
2022/06/23 00:32:28;;;;;;;2.42;2.08;;;;;;;;;;4975707;28;20019;-94
2022/06/23 00:34:57;;;;;;;4.85;2.75;;;;;;;;;;4975451;28;20030;-94
2022/06/23 00:37:23;;;;;;;4.28;1.85;;;;;;;;;;4976824;28;20057;-94
2022/06/23 00:39:53;;;;;;;3.65;2.03;;;;;;;;;;4975200;28;20023;-94
2022/06/23 00:42:23;;;;;;;4.43;2.17;;;;;;;;;;4959636;28;20453;-93
2022/06/23 00:45:09;;;;;;;4.38;2.10;;;;;;;;;;4955259;28;20241;-94
2022/06/23 00:47:34;;;;;;;5.28;2.45;;;;;;;;;;4946740;28;20046;-94
2022/06/23 00:50:03;;;;;;;5.47;2.67;;;;;;;;;;4955756;28;20019;-94
2022/06/23 00:52:34;;;;;;;6.80;2.53;;;;;;;;;;4956216;29;20050;-93
2022/06/23 00:55:02;;;;;;;7.88;2.53;;;;;;;;;;4957716;28;20046;-94
2022/06/23 00:57:33;;;;;;;4.20;2.28;;;;;;;;;;4958971;28;20031;-93
2022/06/23 01:00:10;;;;;;;4.63;2.40;;;;;;;;;;4962851;29;20301;-93
2022/06/23 01:02:47;;;;;;;4.32;2.72;;;;;;;;;;4961226;28;20034;-93
2022/06/23 01:05:34;;;;;;;8.48;3.17;;;;;;;;;;4962737;28;20086;-93
2022/06/23 01:08:11;;;;;;;7.70;2.80;;;;;;;;;;4961598;28;20098;-93
2022/06/23 01:10:48;;;;;;;5.95;2.67;;;;;;;;;;4981294;28;20062;-93
2022/06/23 01:13:28;;;;;;;4.60;2.65;;;;;;;;;;4979530;28;20548;-92
2022/06/23 01:15:56;;;;;;;5.53;2.80;;;;;;;;;;4981740;28;20035;-93
2022/06/23 01:18:25;;;;;;;4.22;2.60;;;;;;;;;;4981254;28;20022;-94
2022/06/23 01:20:54;;;;;;;4.15;2.40;;;;;;;;;;4981135;28;20023;-92
2022/06/23 01:23:22;;;;;;;5.10;2.90;;;;;;;;;;4981231;28;20416;-92
2022/06/23 01:25:53;;;;;;;4.95;3.03;;;;;;;;;;4980466;28;20027;-92
2022/06/23 01:28:20;;;;;;;6.85;3.28;;;;;;;;;;4965161;28;20015;-92
2022/06/23 01:31:04;;;;;;;9.10;2.88;;;;;;;;;;4961835;28;20047;-94
2022/06/23 01:33:29;;;;;;;4.53;2.83;;;;;;;;;;4961809;28;20097;-93
2022/06/23 01:36:07;;;;;;;6.70;2.77;;;;;;;;;;4961416;28;20031;-92
2022/06/23 01:38:51;;;;;;;4.78;3.28;;;;;;;;;;4961534;28;20043;-92
2022/06/23 01:41:37;;;;;;;8.25;2.90;;;;;;;;;;4960981;28;20027;-92
2022/06/23 01:44:28;;;;;;;7.65;3.00;;;;;;;;;;4979408;28;20477;-93
2022/06/23 01:46:54;;;;;;;5.32;3.33;;;;;;;;;;4962557;28;20094;-92
2022/06/23 01:49:46;;;;;;;9.00;2.55;;;;;;;;;;4961968;28;20038;-93
2022/06/23 01:52:15;;;;;;;6.95;2.63;;;;;;;;;;4960799;28;20102;-94
2022/06/23 01:54:40;;;;;;;4.10;2.92;;;;;;;;;;4961461;28;20031;-93
2022/06/23 01:57:24;;;;;;;4.28;2.70;;;;;;;;;;4961475;28;20086;-92
2022/06/23 02:00:08;;;;;;;6.30;2.80;;;;;;;;;;4965187;28;20062;-93
2022/06/23 02:02:33;;;;;;;5.32;3.05;;;;;;;;;;4980030;28;20047;-93
2022/06/23 02:05:23;;;;;;;4.57;2.63;;;;;;;;;;4981142;28;20022;-92
2022/06/23 02:07:55;;;;;;;4.00;2.65;;;;;;;;;;4979479;28;20019;-92
2022/06/23 02:10:20;;;;;;;6.22;3.13;;;;;;;;;;4977025;28;20019;-93
2022/06/23 02:13:04;;;;;;;4.80;2.53;;;;;;;;;;4978489;28;20019;-92
2022/06/23 02:15:30;;;;;;;5.03;2.70;;;;;;;;;;4965245;28;20166;-93
2022/06/23 02:17:58;;;;;;;5.40;2.47;;;;;;;;;;4957614;28;20453;-93
2022/06/23 02:20:28;;;;;;;7.43;2.85;;;;;;;;;;4959067;28;20023;-92
2022/06/23 02:23:01;;;;;;;4.30;2.60;;;;;;;;;;4957952;28;20019;-94
2022/06/23 02:25:30;;;;;;;6.18;3.08;;;;;;;;;;4958924;28;20131;-93
2022/06/23 02:28:11;;;;;;;6.80;3.05;;;;;;;;;;4958050;28;20043;-93
2022/06/23 02:30:42;;;;;;;4.03;2.80;;;;;;;;;;4971335;28;20035;-94
2022/06/23 02:33:13;;;;;;;7.40;2.65;;;;;;;;;;4977266;28;20054;-93
2022/06/23 02:35:57;;;;;;;5.53;2.97;;;;;;;;;;4977599;28;20042;-93
2022/06/23 02:38:22;;;;;;;3.08;2.42;;;;;;;;;;4976921;28;20378;-93
2022/06/23 02:40:49;;;;;;;5.00;2.83;;;;;;;;;;4978266;28;20027;-93
2022/06/23 02:43:27;;;;;;;4.15;2.85;;;;;;;;;;4976983;28;20033;-95
2022/06/23 02:45:58;;;;;;;6.47;2.53;;;;;;;;;;4958034;28;20027;-93
2022/06/23 02:48:31;;;;;;;5.03;2.90;;;;;;;;;;4957073;28;20024;-94
2022/06/23 02:50:59;;;;;;;6.55;2.80;;;;;;;;;;4958313;28;20093;-94
2022/06/23 02:53:36;;;;;;;5.70;3.08;;;;;;;;;;4958751;28;20019;-94
2022/06/23 02:56:15;;;;;;;6.28;2.83;;;;;;;;;;4958586;28;20035;-94
2022/06/23 02:58:47;;;;;;;10.10;3.80;;;;;;;;;;4960977;28;20018;-93
2022/06/23 03:01:14;;;;;;;5.80;2.90;;;;;;;;;;4976569;28;20441;-94
2022/06/23 03:03:42;;;;;;;5.75;3.08;;;;;;;;;;4977431;28;20011;-93
2022/06/23 03:06:18;;;;;;;4.28;2.35;;;;;;;;;;4975538;28;20019;-92
2022/06/23 03:08:49;;;;;;;8.25;3.00;;;;;;;;;;4976627;28;20019;-93
2022/06/23 03:11:51;;;;;;;6.35;3.10;;;;;;;;;;4974847;28;20019;-93
2022/06/23 03:14:07;;;;;;;6.05;2.72;;;;;;;;;;4976612;28;20027;-92
2022/06/23 03:16:35;;;;;;;7.60;2.70;;;;;;;;;;4976382;28;20082;-93
2022/06/23 03:19:00;;;;;;;5.38;2.90;;;;;;;;;;4975914;28;20385;-92
2022/06/23 03:21:31;;;;;;;3.97;2.77;;;;;;;;;;4963497;28;20016;-93
2022/06/23 03:24:12;;;;;;;3.60;2.40;;;;;;;;;;4973022;28;20265;-94
2022/06/23 03:26:37;;;;;;;9.52;2.40;;;;;;;;;;4976673;28;20484;-92
2022/06/23 03:29:10;;;;;;;5.57;3.30;;;;;;;;;;4974704;28;20023;-93
2022/06/23 03:32:01;;;;;;;7.15;2.97;;;;;;;;;;4991066;28;20113;-94
2022/06/23 03:34:34;;;;;;;7.27;3.10;;;;;;;;;;4976498;28;20465;-93
2022/06/23 03:37:06;;;;;;;5.43;2.60;;;;;;;;;;4976215;28;20292;-93
2022/06/23 03:42:18;;;;;;;3.38;3.08;;;;;;;;;;4975740;28;20085;-94
2022/06/23 03:45:06;;;;;;;4.90;2.78;;;;;;;;;;4976849;28;20413;-92
2022/06/23 03:47:31;;;;;;;2.63;2.42;;;;;;;;;;4974606;28;20038;-94
2022/06/23 03:49:56;;;;;;;3.93;2.60;;;;;;;;;;4974625;28;20022;-94
2022/06/23 03:52:37;;;;;;;5.80;3.07;;;;;;;;;;4975357;28;20268;-92
2022/06/23 03:55:02;;;;;;;7.82;3.05;;;;;;;;;;4975678;28;20682;-93
2022/06/23 03:57:41;;;;;;;5.20;2.90;;;;;;;;;;4975459;28;20038;-93
2022/06/23 04:00:19;;;;;;;6.05;3.25;;;;;;;;;;4975049;28;20011;-94
2022/06/23 04:02:46;;;;;;;4.18;2.40;;;;;;;;;;4954854;28;20035;-93
2022/06/23 04:05:27;;;;;;;5.43;2.70;;;;;;;;;;4955914;28;20026;-93
2022/06/23 04:07:55;;;;;;;4.82;2.83;;;;;;;;;;4956256;28;20045;-94
2022/06/23 04:10:27;;;;;;;5.78;2.83;;;;;;;;;;4956431;28;20027;-94
2022/06/23 04:12:55;;;;;;;5.00;2.80;;;;;;;;;;4959297;28;20459;-93
2022/06/23 04:15:33;;;;;;;5.28;2.88;;;;;;;;;;4956692;28;20061;-93
2022/06/23 04:18:01;;;;;;;4.57;2.72;;;;;;;;;;4957299;28;20011;-95
2022/06/23 04:20:32;;;;;;;5.13;2.55;;;;;;;;;;4960001;28;20023;-94
2022/06/23 04:22:57;;;;;;;4.25;3.25;;;;;;;;;;4975412;28;20369;-93
2022/06/23 04:25:26;;;;;;;3.23;2.80;;;;;;;;;;4976070;28;20029;-93
2022/06/23 04:27:56;;;;;;;7.07;3.45;;;;;;;;;;4974764;28;20287;-94
2022/06/23 04:30:27;;;;;;;5.15;3.17;;;;;;;;;;4975842;28;20035;-95
2022/06/23 04:32:54;;;;;;;4.03;2.85;;;;;;;;;;4974572;28;20417;-94
2022/06/23 04:35:26;;;;;;;7.40;3.40;;;;;;;;;;4974281;28;20034;-93
2022/06/23 04:37:56;;;;;;;6.03;3.40;;;;;;;;;;4974837;28;20528;-93
2022/06/23 04:40:25;;;;;;;4.13;2.92;;;;;;;;;;4974853;28;20034;-94
2022/06/23 04:42:53;;;;;;;7.20;3.85;;;;;;;;;;4974890;28;20085;-93
2022/06/23 04:45:34;;;;;;;4.50;2.60;;;;;;;;;;4974419;28;20069;-93
2022/06/23 04:48:00;;;;;;;5.55;3.35;;;;;;;;;;4974506;28;20045;-92
2022/06/23 04:50:43;;;;;;;5.53;2.95;;;;;;;;;;4972952;28;20019;-93
2022/06/23 04:53:17;;;;;;;5.15;3.40;;;;;;;;;;4961577;28;20106;-93
2022/06/23 04:55:43;;;;;;;4.53;2.78;;;;;;;;;;4955202;29;20437;-93
2022/06/23 04:58:22;;;;;;;5.97;2.70;;;;;;;;;;4955452;28;20019;-92
2022/06/23 05:00:50;;;;;;;5.53;3.58;;;;;;;;;;4954957;28;20054;-93
2022/06/23 05:03:19;;;;;;;5.43;3.00;;;;;;;;;;4955113;28;20043;-93
2022/06/23 05:05:44;;;;;;;5.88;3.17;;;;;;;;;;4955430;28;20051;-93
2022/06/23 05:08:20;;;;;;;6.13;3.10;;;;;;;;;;4969423;28;20042;-93
2022/06/23 05:10:51;;;;;;;3.42;3.13;;;;;;;;;;4974161;28;20438;-93
2022/06/23 05:13:16;;;;;;;4.00;2.78;;;;;;;;;;4972980;28;20122;-93
2022/06/23 05:15:44;;;;;;;6.60;2.83;;;;;;;;;;4974214;28;20121;-92
2022/06/23 05:18:13;;;;;;;5.07;3.35;;;;;;;;;;4974307;28;20521;-92
2022/06/23 05:20:47;;;;;;;6.55;3.40;;;;;;;;;;4967047;28;20032;-94
2022/06/23 05:23:17;;;;;;;4.90;2.80;;;;;;;;;;4954747;28;20023;-92
2022/06/23 05:25:46;;;;;;;5.85;3.50;;;;;;;;;;4954654;28;20046;-91
2022/06/23 05:28:15;;;;;;;7.63;3.15;;;;;;;;;;4954528;28;20073;-92
2022/06/23 05:30:46;;;;;;;10.70;3.92;;;;;;;;;;4954393;29;20035;-91
2022/06/23 05:33:16;;;;;;;5.65;2.80;;;;;;;;;;4954507;28;20414;-91
2022/06/23 05:35:45;;;;;;;6.03;2.97;;;;;;;;;;4955601;28;20074;-91
2022/06/23 05:38:25;;;;;;;3.50;2.97;;;;;;;;;;4954189;28;20010;-91
2022/06/23 05:40:58;;;;;;;8.68;4.00;;;;;;;;;;4954591;28;20027;-90
2022/06/23 05:43:24;;;;;;;4.65;3.03;;;;;;;;;;4956310;28;20072;-95
2022/06/23 05:45:51;;;;;;;4.35;3.13;;;;;;;;;;4971311;28;20065;-93
2022/06/23 05:48:19;;;;;;;3.33;3.03;;;;;;;;;;4978071;28;20022;-94
2022/06/23 05:50:48;;;;;;;3.92;2.92;;;;;;;;;;4973089;28;20019;-92
2022/06/23 05:53:23;;;;;;;6.88;3.10;;;;;;;;;;4976685;28;20022;-92
2022/06/23 05:55:59;;;;;;;5.60;3.00;;;;;;;;;;4976396;28;20031;-93
2022/06/23 05:58:42;;;;;;;4.47;3.03;;;;;;;;;;4975560;28;20073;-92
2022/06/23 06:01:18;;;;;;;5.25;3.15;;;;;;;;;;4975544;28;20029;-96
2022/06/23 06:04:12;;;;;;;4.45;3.22;;;;;;;;;;4980606;28;20023;-94
2022/06/23 06:06:38;;;;;;;5.63;3.50;;;;;;;;;;4977239;28;20019;-95
2022/06/23 06:11:51;;;;;;;8.57;3.60;;;;;;;;;;4977816;28;20026;-92
2022/06/23 06:14:18;;;;;;;5.07;3.25;;;;;;;;;;4977559;28;20456;-93
2022/06/23 06:16:44;;;;;;;5.20;2.88;;;;;;;;;;4977886;28;20106;-94
2022/06/23 06:19:16;;;;;;;8.63;3.65;;;;;;;;;;4976766;28;20448;-95
2022/06/23 06:21:42;;;;;;;12.38;3.45;;;;;;;;;;4976998;28;20094;-95
2022/06/23 06:24:17;;;;;;;9.88;3.00;;;;;;;;;;4975306;28;20058;-95
2022/06/23 06:26:45;;;;;;;6.60;3.22;;;;;;;;;;4957663;28;20019;-94
2022/06/23 06:29:15;;;;;;;6.43;3.45;;;;;;;;;;4957505;28;20030;-94
2022/06/23 06:31:43;;;;;;;7.85;3.33;;;;;;;;;;4958710;28;20548;-92
2022/06/23 06:34:08;;;;;;;9.88;3.45;;;;;;;;;;4970328;28;20077;-93
2022/06/23 06:36:37;;;;;;;6.67;3.43;;;;;;;;;;4968845;28;20078;-93
2022/06/23 06:39:07;;;;;;;6.90;2.85;;;;;;;;;;4957752;28;20098;-93
2022/06/23 06:41:33;;;;;;;5.35;2.75;;;;;;;;;;4971388;28;20057;-94
2022/06/23 06:43:58;;;;;;;4.55;2.60;;;;;;;;;;4970579;28;20039;-92
2022/06/23 06:46:24;;;;;;;4.35;2.80;;;;;;;;;;4976688;28;20027;-95
2022/06/23 06:48:49;;;;;;;3.70;2.05;;;;;;;;;;4976412;28;20362;-93
2022/06/23 06:51:17;;;;;;;2.85;1.70;;;;;;;;;;4975777;28;20046;-79
2022/06/23 06:53:46;;;;;;;4.25;1.75;;;;;;;;;;4974085;28;20103;-79
2022/06/23 06:56:15;;;;;;;3.28;1.50;;;;;;;;;;4973598;28;20039;-79
2022/06/23 06:58:46;;;;;;;3.97;1.40;;;;;;;;;;4974707;28;20548;-79
2022/06/23 07:01:14;;;;;;;2.83;1.05;;;;;;;;;;4974050;28;20116;-80
2022/06/23 07:03:41;;;;;;;4.00;1.00;;;;;;;;;;4974173;28;20540;-79
2022/06/23 07:06:09;;;;;;;3.97;1.00;;;;;;;;;;4974540;28;20031;-79
2022/06/23 07:08:34;;;;;;;3.83;1.25;;;;;;;;;;4974602;28;20624;-79
2022/06/23 07:11:13;;;;;;;2.50;1.10;;;;;;;;;;4974473;28;20079;-79
2022/06/23 07:13:42;;;;;;;4.97;1.35;;;;;;;;;;4974164;28;20035;-79
2022/06/23 07:16:12;;;;;;;1.33;1.00;;;;;;;;;;4974593;28;20043;-79
2022/06/23 07:18:41;;;;;;;7.43;0.80;;;;;;;;;;4972463;28;20047;-79
2022/06/23 07:21:10;;;;;;;2.20;0.85;;;;;;;;;;4974360;28;20037;-80
2022/06/23 07:23:54;;;;;;;2.85;1.23;;;;;;;;;;4974012;28;20106;-80
2022/06/23 07:26:42;;;;;;;1.58;1.08;;;;;;;;;;4967719;28;20362;-80
2022/06/23 07:29:17;;;;;;;1.80;0.80;;;;;;;;;;4955017;28;20090;-80
2022/06/23 07:31:48;;;;;;;1.33;0.90;;;;;;;;;;4973641;28;20109;-81
2022/06/23 07:34:15;;;;;;;2.08;1.30;;;;;;;;;;4974298;28;20051;-79
2022/06/23 07:36:46;;;;;;;2.60;0.90;;;;;;;;;;4973829;28;20035;-79
2022/06/23 07:39:11;;;;;;;3.85;1.40;;;;;;;;;;4972584;28;20105;-79
2022/06/23 07:41:39;;;;;;;3.10;0.63;;;;;;;;;;4972497;28;20138;-80
2022/06/23 07:44:07;;;;;;;1.42;0.85;;;;;;;;;;4974221;28;20267;-80
2022/06/23 07:46:34;;;;;;;1.75;0.85;;;;;;;;;;4973144;28;20381;-80
2022/06/23 07:49:00;;;;;;;1.50;0.70;;;;;;;;;;4974119;28;20058;-80
2022/06/23 07:51:26;;;;;;;1.00;0.68;;;;;;;;;;4972569;28;20050;-80
2022/06/23 07:53:53;;;;;;;3.17;1.13;;;;;;;;;;4973869;28;20073;-80
2022/06/23 07:56:20;;;;;;;1.77;0.60;;;;;;;;;;4971092;28;20548;-80
2022/06/23 07:58:46;;;;;;;1.60;0.60;;;;;;;;;;4961702;28;20074;-80
2022/06/23 08:01:12;;;;;;;1.15;0.47;;;;;;;;;;4967930;28;20385;-80
2022/06/23 08:03:40;;;;;;;0.90;0.40;;;;;;;;;;4966925;28;20029;-80
2022/06/23 08:06:08;;;;;;;1.42;0.63;;;;;;;;;;4961296;28;20457;-80
2022/06/23 08:08:35;;;;;;;1.33;0.80;;;;;;;;;;4953906;28;20106;-81
2022/06/23 08:13:47;;;;;;;2.53;1.15;;;;;;;;;;4972686;28;20114;-80
2022/06/23 08:19:10;;;;;;;1.75;0.50;;;;;;;;;;4973032;28;20080;-80
2022/06/23 08:21:39;;;;;;;2.08;0.52;;;;;;;;;;4971905;28;20404;-80
2022/06/23 08:24:06;;;;;;;1.92;0.68;;;;;;;;;;4972997;28;20094;-80
2022/06/23 08:26:32;;;;;;;1.40;0.63;;;;;;;;;;4970722;28;20053;-80
2022/06/23 08:28:58;;;;;;;1.38;0.60;;;;;;;;;;4960694;28;20058;-80
2022/06/23 08:31:23;;;;;;;2.72;0.60;;;;;;;;;;4953433;28;20043;-80
2022/06/23 08:33:49;;;;;;;2.38;0.50;;;;;;;;;;4953648;29;20385;-80
2022/06/23 08:36:17;;;;;;;1.33;0.68;;;;;;;;;;4955364;28;20043;-80
2022/06/23 08:38:53;;;;;;;0.77;0.43;;;;;;;;;;4972411;28;20480;-80
2022/06/23 08:41:30;;;;;;;0.52;0.30;;;;;;;;;;4972531;28;20516;-80
2022/06/23 08:43:58;;;;;;;2.25;0.40;;;;;;;;;;4972471;28;20465;-80
2022/06/23 08:46:29;;;;;;;0.82;0.30;;;;;;;;;;4971155;28;20027;-80
2022/06/23 08:49:00;;;;;;;1.02;0.38;;;;;;;;;;4972663;28;20073;-80
2022/06/23 08:51:39;;;;;;;1.17;0.47;;;;;;;;;;4954148;28;20051;-80
2022/06/23 08:54:19;;;;;;;1.25;0.70;;;;;;;;;;4953571;29;20424;-81
2022/06/23 08:56:45;;;;;;;1.73;0.60;;;;;;;;;;4953298;28;20042;-80
2022/06/23 08:59:22;;;;;;;1.90;0.70;;;;;;;;;;4958445;28;20274;-80
2022/06/23 09:02:05;;;;;;;2.90;0.50;;;;;;;;;;4952920;29;20020;-80
2022/06/23 09:04:49;;;;;;;1.80;0.93;;;;;;;;;;4964280;28;20106;-79
2022/06/23 09:07:32;;;;;;;1.45;0.75;;;;;;;;;;4964326;28;20019;-79
2022/06/23 09:10:05;;;;;;;1.50;0.90;;;;;;;;;;4951673;28;20129;-79
2022/06/23 09:12:41;;;;;;;1.10;0.60;;;;;;;;;;4966508;28;20029;-79
2022/06/23 09:15:24;;;;;;;1.58;0.60;;;;;;;;;;4972402;28;20042;-79
2022/06/23 09:17:52;;;;;;;1.40;0.65;;;;;;;;;;4973433;28;20022;-79
2022/06/23 09:20:22;;;;;;;1.70;0.63;;;;;;;;;;4975891;28;20027;-79
2022/06/23 09:22:59;;;;;;;3.30;0.93;;;;;;;;;;4975696;28;20447;-79
2022/06/23 09:25:25;;;;;;;1.08;0.55;;;;;;;;;;4976372;28;20022;-79
2022/06/23 09:28:10;;;;;;;2.60;1.00;;;;;;;;;;4975806;28;20022;-79
2022/06/23 09:30:38;;;;;;;2.15;0.85;;;;;;;;;;4974084;28;20377;-79
2022/06/23 09:33:23;;;;;;;3.10;0.90;;;;;;;;;;4975715;28;20049;-79
2022/06/23 09:35:54;;;;;;;4.43;0.90;;;;;;;;;;4975142;28;20411;-78
2022/06/23 09:38:29;;;;;;;1.63;0.50;;;;;;;;;;4956668;28;20058;-78
2022/06/23 09:40:59;;;;;;;7.72;0.73;;;;;;;;;;4956602;28;20035;-77
2022/06/23 09:43:27;;;;;;;1.20;0.70;;;;;;;;;;4956741;29;20166;-78
2022/06/23 09:46:04;;;;;;;1.67;1.15;;;;;;;;;;4970343;28;20363;-80
2022/06/23 09:48:35;;;;;;;3.25;0.90;;;;;;;;;;4975989;28;20019;-78
2022/06/23 09:51:00;;;;;;;2.15;0.85;;;;;;;;;;4975145;28;20026;-78
2022/06/23 09:53:38;;;;;;;3.63;1.93;;;;;;;;;;4974283;28;20503;-79
2022/06/23 09:56:03;;;;;;;4.55;1.02;;;;;;;;;;4975687;28;20022;-79
2022/06/23 09:58:32;;;;;;;5.10;0.97;;;;;;;;;;4976025;28;20483;-79
2022/06/23 10:00:57;;;;;;;4.90;1.00;;;;;;;;;;4962416;28;20035;-79
2022/06/23 10:03:22;;;;;;;3.77;0.77;;;;;;;;;;4975570;28;20465;-79
2022/06/23 10:05:58;;;;;;;3.07;1.13;;;;;;;;;;4975212;28;20077;-79
2022/06/23 10:08:32;;;;;;;1.20;0.40;;;;;;;;;;4974969;28;20027;-79
2022/06/23 10:11:15;;;;;;;2.15;0.60;;;;;;;;;;4963609;28;20027;-79
2022/06/23 10:13:54;;;;;;;6.53;0.70;;;;;;;;;;4974805;28;20085;-77
2022/06/23 10:16:38;;;;;;;0.73;0.40;;;;;;;;;;4973476;28;20035;-77
2022/06/23 10:19:21;;;;;;;2.38;0.50;;;;;;;;;;4975221;28;20030;-77
2022/06/23 10:21:47;;;;;;;2.05;0.70;;;;;;;;;;4973805;28;20037;-77
2022/06/23 10:24:47;;;;;;;3.40;0.83;;;;;;;;;;4975386;28;20027;-77
2022/06/23 10:27:31;;;;;;;2.35;0.70;;;;;;;;;;5011797;28;20314;-77
2022/06/23 10:29:56;;;;;;;2.15;0.80;;;;;;;;;;4966102;28;20047;-78
2022/06/23 10:32:49;;;;;;;2.50;0.90;;;;;;;;;;4967718;28;20102;-78
2022/06/23 10:35:28;;;;;;;2.13;0.55;;;;;;;;;;4970505;28;20094;-78
2022/06/23 10:38:00;;;;;;;2.95;0.73;;;;;;;;;;4967974;28;20564;-78
2022/06/23 10:40:27;;;;;;;1.67;0.70;;;;;;;;;;4974310;28;20042;-77
2022/06/23 10:42:53;;;;;;;5.05;2.00;;;;;;;;;;4974272;28;20033;-78
2022/06/23 10:45:37;;;;;;;1.60;0.60;;;;;;;;;;4974625;28;20115;-78
2022/06/23 10:48:11;;;;;;;0.98;0.60;;;;;;;;;;4965323;28;20401;-78
2022/06/23 10:50:55;;;;;;;1.98;0.70;;;;;;;;;;4957255;28;20082;-77
2022/06/23 10:53:43;;;;;;;3.15;0.90;;;;;;;;;;4972900;28;20073;-78
2022/06/23 10:56:27;;;;;;;2.50;0.80;;;;;;;;;;4973540;28;20042;-78
2022/06/23 10:59:11;;;;;;;1.70;0.60;;;;;;;;;;4974215;28;20059;-78
2022/06/23 11:01:47;;;;;;;4.45;0.77;;;;;;;;;;4974229;28;20443;-78
2022/06/23 11:04:25;;;;;;;2.03;0.80;;;;;;;;;;4974633;28;20093;-78
2022/06/23 11:06:55;;;;;;;3.17;1.00;;;;;;;;;;4973728;28;20062;-78
2022/06/23 11:09:43;;;;;;;8.43;1.38;;;;;;;;;;4974503;28;20346;-78
2022/06/23 11:12:25;;;;;;;6.07;1.48;;;;;;;;;;4974077;28;20027;-78
2022/06/23 11:14:57;;;;;;;3.65;1.42;;;;;;;;;;4954918;29;20034;-77
2022/06/23 11:17:52;;;;;;;4.70;0.88;;;;;;;;;;4954767;28;20023;-78
2022/06/23 11:20:21;;;;;;;2.33;1.20;;;;;;;;;;4966580;28;20036;-78
2022/06/23 11:22:46;;;;;;;2.78;1.50;;;;;;;;;;4970799;28;20059;-78
2022/06/23 11:25:30;;;;;;;2.33;1.20;;;;;;;;;;4974306;28;20369;-78
2022/06/23 11:27:55;;;;;;;6.65;1.55;;;;;;;;;;4972196;28;20023;-78
2022/06/23 11:30:23;;;;;;;1.50;1.00;;;;;;;;;;4973804;28;20027;-78
2022/06/23 11:32:54;;;;;;;5.97;1.50;;;;;;;;;;4971972;28;20100;-78
2022/06/23 11:35:22;;;;;;;2.13;1.00;;;;;;;;;;4972467;28;20022;-78
2022/06/23 11:37:54;;;;;;;7.10;1.50;;;;;;;;;;4972782;28;20022;-78
2022/06/23 11:40:20;;;;;;;5.68;1.15;;;;;;;;;;4986876;28;20021;-78
2022/06/23 11:43:03;;;;;;;9.13;1.10;;;;;;;;;;4971313;28;20022;-78
2022/06/23 11:45:42;;;;;;;3.20;1.05;;;;;;;;;;4972393;28;20027;-78
2022/06/23 11:48:11;;;;;;;5.25;1.23;;;;;;;;;;4976480;28;20429;-77
2022/06/23 11:50:39;;;;;;;1.92;0.93;;;;;;;;;;4975369;28;20019;-77
2022/06/23 11:53:24;;;;;;;3.30;1.25;;;;;;;;;;4957855;28;20019;-77
2022/06/23 11:55:57;;;;;;;4.97;1.42;;;;;;;;;;4954084;29;20043;-77
2022/06/23 11:58:32;;;;;;;4.22;0.98;;;;;;;;;;4957448;28;20026;-76
2022/06/23 12:01:14;;;;;;;2.05;1.10;;;;;;;;;;4973132;28;20476;-77
2022/06/23 12:03:43;;;;;;;4.20;1.45;;;;;;;;;;4964132;28;20046;-78
2022/06/23 12:06:10;;;;;;;4.90;1.45;;;;;;;;;;4972324;28;20045;-78
2022/06/23 12:09:08;;;;;;;9.88;1.38;;;;;;;;;;4963778;28;20019;-78
2022/06/23 12:11:36;;;;;;;2.75;1.05;;;;;;;;;;4964102;28;20495;-78
2022/06/23 12:14:02;;;;;;;2.80;1.08;;;;;;;;;;4968999;28;20025;-77
2022/06/23 12:16:27;;;;;;;7.18;1.00;;;;;;;;;;4953131;28;20062;-77
2022/06/23 12:18:55;;;;;;;7.55;2.47;;;;;;;;;;4960065;28;20477;-77
2022/06/23 12:21:30;;;;;;;3.75;1.30;;;;;;;;;;4954828;28;20031;-77
2022/06/23 12:24:01;;;;;;;4.93;1.40;;;;;;;;;;4964682;28;20501;-77
2022/06/23 12:26:27;;;;;;;;;;;;;;;;;;4954133;29;20035;-77
2022/06/23 12:29:11;;;;;;;4.45;1.35;;;;;;;;;;4957372;28;19959;-77
2022/06/23 12:31:36;;;;;;;7.85;1.50;;;;;;;;;;4972979;28;20480;-77
2022/06/23 12:34:09;;;;;;;8.35;2.03;;;;;;;;;;4965429;28;20015;-77
2022/06/23 12:36:41;;;;;;;10.48;2.38;;;;;;;;;;4953671;28;20063;-78
2022/06/23 12:39:28;;;;;;;9.65;2.55;;;;;;;;;;4952248;28;20398;-78
2022/06/23 12:41:59;;;;;;;6.15;2.50;;;;;;;;;;4958274;28;20021;-77
2022/06/23 12:44:39;;;;;;;21.53;3.27;;;;;;;;;;4961838;28;20019;-77
2022/06/23 12:47:14;;;;;;;4.90;2.03;;;;;;;;;;4961869;28;20264;-77
2022/06/23 12:49:47;;;;;;;8.50;2.40;;;;;;;;;;4960305;28;20022;-77
2022/06/23 12:52:20;;;;;;;4.32;2.10;;;;;;;;;;4972401;28;20019;-78
2022/06/23 12:55:04;;;;;;;5.35;2.13;;;;;;;;;;4959019;28;20378;-78
2022/06/23 12:57:30;;;;;;;5.80;2.47;;;;;;;;;;4953437;29;20532;-77
2022/06/23 13:00:11;;;;;;;7.35;2.80;;;;;;;;;;4953411;29;20030;-78
2022/06/23 13:02:38;;;;;;;4.88;2.40;;;;;;;;;;4956201;28;20087;-78
2022/06/23 13:05:20;;;;;;;5.97;2.70;;;;;;;;;;4966209;28;20023;-77
2022/06/23 13:08:04;;;;;;;6.20;2.45;;;;;;;;;;4966149;28;20047;-77
2022/06/23 13:10:50;;;;;;;6.85;2.63;;;;;;;;;;4961478;28;20110;-77
2022/06/23 13:13:22;;;;;;;6.47;2.67;;;;;;;;;;4963400;28;20026;-77
2022/06/23 13:15:49;;;;;;;3.75;2.35;;;;;;;;;;4965960;28;20041;-77
2022/06/23 13:18:14;;;;;;;9.23;3.75;;;;;;;;;;4967248;28;20034;-77
2022/06/23 13:20:43;;;;;;;8.93;3.10;;;;;;;;;;4969748;28;20034;-77
2022/06/23 13:23:14;;;;;;;5.35;2.22;;;;;;;;;;4972216;28;20019;-77
2022/06/23 13:25:50;;;;;;;4.57;2.50;;;;;;;;;;4970859;28;20373;-77
2022/06/23 13:28:25;;;;;;;8.65;2.97;;;;;;;;;;4972166;28;20106;-77
2022/06/23 13:30:52;;;;;;;8.15;3.10;;;;;;;;;;4971936;28;20038;-77
2022/06/23 13:33:30;;;;;;;9.55;2.90;;;;;;;;;;4970771;28;20508;-77
2022/06/23 13:36:00;;;;;;;8.75;2.80;;;;;;;;;;4960492;28;20485;-77
2022/06/23 13:38:40;;;;;;;8.27;3.17;;;;;;;;;;4953806;28;20034;-77
2022/06/23 13:41:05;;;;;;;4.32;2.47;;;;;;;;;;4954105;28;20485;-77
2022/06/23 13:43:35;;;;;;;12.00;3.58;;;;;;;;;;4963494;28;20102;-77
2022/06/23 13:46:04;;;;;;;6.28;2.95;;;;;;;;;;4953396;28;20556;-77
2022/06/23 13:48:38;;;;;;;8.35;3.88;;;;;;;;;;4971764;28;20030;-78
2022/06/23 13:51:09;;;;;;;5.45;2.72;;;;;;;;;;4970900;28;20473;-78
2022/06/23 13:53:40;;;;;;;6.25;2.95;;;;;;;;;;4967485;28;20485;-78
2022/06/23 13:56:18;;;;;;;6.47;2.90;;;;;;;;;;4965213;28;20031;-77
2022/06/23 13:58:52;;;;;;;9.88;3.53;;;;;;;;;;4959686;28;20496;-77
2022/06/23 14:01:24;;;;;;;10.98;2.95;;;;;;;;;;4970048;28;20027;-77
2022/06/23 14:03:53;;;;;;;8.00;3.20;;;;;;;;;;4954679;28;20502;-77
2022/06/23 14:06:45;;;;;;;4.55;2.83;;;;;;;;;;4973711;28;20101;-77
2022/06/23 14:09:33;;;;;;;10.50;3.00;;;;;;;;;;4973148;28;20501;-77
2022/06/23 14:12:01;;;;;;;5.05;2.50;;;;;;;;;;4973085;28;20590;-77
2022/06/23 14:14:32;;;;;;;5.07;2.22;;;;;;;;;;4955845;28;20027;-78
2022/06/23 14:17:00;;;;;;;9.10;2.83;;;;;;;;;;4963276;28;20388;-77
2022/06/23 14:19:35;;;;;;;4.55;2.33;;;;;;;;;;4973622;28;20046;-77
2022/06/23 14:22:12;;;;;;;5.53;2.35;;;;;;;;;;4975244;28;20713;-77
2022/06/23 14:24:37;;;;;;;6.53;2.38;;;;;;;;;;4975592;28;20054;-77
2022/06/23 14:27:11;;;;;;;9.73;2.90;;;;;;;;;;4973911;28;20062;-77
2022/06/23 14:29:37;;;;;;;7.15;3.13;;;;;;;;;;4962680;28;20057;-77
2022/06/23 14:32:08;;;;;;;6.23;2.87;;;;;;;;;;4962878;28;20078;-77
2022/06/23 14:34:41;;;;;;;6.25;2.40;;;;;;;;;;4962135;28;20023;-77
2022/06/23 14:37:26;;;;;;;3.72;2.35;;;;;;;;;;4966118;28;20065;-77
2022/06/23 14:39:55;;;;;;;7.90;2.50;;;;;;;;;;4965794;28;20042;-77
2022/06/23 14:42:20;;;;;;;4.95;3.40;;;;;;;;;;4960259;28;20054;-77
2022/06/23 14:44:54;;;;;;;4.53;2.60;;;;;;;;;;4963624;28;20380;-77
2022/06/23 14:47:50;;;;;;;9.05;3.50;;;;;;;;;;4955947;28;20086;-77
2022/06/23 14:50:34;;;;;;;3.65;2.05;;;;;;;;;;4973126;28;20113;-77
2022/06/23 14:53:11;;;;;;;8.10;3.13;;;;;;;;;;4975053;28;20023;-78
2022/06/23 14:55:36;;;;;;;5.00;2.95;;;;;;;;;;4974801;28;20489;-78
2022/06/23 14:58:01;;;;;;;7.17;3.07;;;;;;;;;;4974996;28;20019;-78
2022/06/23 15:00:45;;;;;;;5.00;2.20;;;;;;;;;;4960943;28;20019;-78
2022/06/23 15:03:26;;;;;;;5.57;2.50;;;;;;;;;;4955687;29;20019;-77
2022/06/23 15:06:02;;;;;;;8.93;3.90;;;;;;;;;;4955709;28;20015;-77
2022/06/23 15:08:37;;;;;;;7.63;3.08;;;;;;;;;;4963931;28;20161;-78
2022/06/23 15:11:07;;;;;;;9.77;4.18;;;;;;;;;;4973339;28;20046;-78
2022/06/23 15:13:37;;;;;;;6.80;3.95;;;;;;;;;;4973974;28;20026;-77
2022/06/23 15:16:22;;;;;;;7.30;3.80;;;;;;;;;;4959827;28;20042;-78
2022/06/23 15:18:48;;;;;;;5.22;3.70;;;;;;;;;;4962759;28;20035;-77
2022/06/23 15:24:03;;;;;;;6.05;3.85;;;;;;;;;;4972606;28;20089;-77
2022/06/23 15:26:31;;;;;;;5.05;3.38;;;;;;;;;;4965463;28;20043;-77
2022/06/23 15:29:01;;;;;;;5.75;2.58;;;;;;;;;;4974294;28;20038;-78